createdAt,value
2017-11-15T00:00:19.294Z,92.56
2017-11-15T00:00:59.870Z,92.46
2017-11-15T00:01:40.438Z,92.56
2017-11-15T00:02:21.033Z,92.56
2017-11-15T00:03:01.624Z,92.56
2017-11-15T00:03:42.251Z,92.66
2017-11-15T00:04:22.861Z,92.66
2017-11-15T00:05:03.497Z,92.66
2017-11-15T00:05:44.107Z,92.75
2017-11-15T00:06:24.683Z,92.56
2017-11-15T00:07:05.258Z,92.37
2017-11-15T00:07:45.893Z,92.56
2017-11-15T00:08:26.583Z,92.46
2017-11-15T00:09:07.211Z,92.37
2017-11-15T00:09:47.855Z,92.18
2017-11-15T00:10:28.397Z,91.99
2017-11-15T00:11:08.981Z,92.37
2017-11-15T00:11:49.593Z,92.27
2017-11-15T00:12:30.184Z,92.46
2017-11-15T00:13:10.741Z,92.37
2017-11-15T00:13:51.361Z,92.46
2017-11-15T00:14:31.943Z,91.99
2017-11-15T00:15:12.524Z,91.52
2017-11-15T00:15:53.110Z,91.99
2017-11-15T00:16:33.697Z,91.89
2017-11-15T00:17:14.304Z,91.89
2017-11-15T00:17:54.891Z,91.71
2017-11-15T00:18:35.516Z,91.8
2017-11-15T00:19:16.107Z,92.37
2017-11-15T00:19:56.690Z,92.08
2017-11-15T00:20:37.298Z,91.8
2017-11-15T00:21:17.876Z,91.71
2017-11-15T00:21:58.447Z,92.08
2017-11-15T00:22:39.033Z,91.71
2017-11-15T00:23:19.612Z,91.8
2017-11-15T00:24:00.247Z,91.89
2017-11-15T00:24:40.839Z,91.71
2017-11-15T00:25:21.426Z,91.8
2017-11-15T00:26:02.018Z,91.99
2017-11-15T00:26:42.614Z,91.71
2017-11-15T00:27:23.198Z,91.71
2017-11-15T00:28:03.811Z,91.71
2017-11-15T00:28:44.407Z,91.52
2017-11-15T00:29:25.011Z,91.52
2017-11-15T00:30:05.596Z,91.99
2017-11-15T00:30:46.215Z,91.89
2017-11-15T00:31:26.832Z,91.61
2017-11-15T00:32:07.476Z,91.71
2017-11-15T00:32:48.099Z,91.8
2017-11-15T00:33:28.767Z,91.61
2017-11-15T00:34:09.354Z,91.99
2017-11-15T00:34:49.944Z,91.61
2017-11-15T00:35:30.510Z,91.99
2017-11-15T00:36:11.092Z,91.99
2017-11-15T00:36:51.675Z,91.99
2017-11-15T00:37:32.251Z,91.61
2017-11-15T00:38:12.880Z,91.89
2017-11-15T00:38:53.487Z,91.71
2017-11-15T00:39:34.165Z,92.18
2017-11-15T00:40:14.758Z,91.71
2017-11-15T00:40:55.353Z,92.18
2017-11-15T00:41:35.961Z,91.89
2017-11-15T00:42:16.592Z,91.99
2017-11-15T00:42:57.195Z,91.99
2017-11-15T00:43:37.780Z,91.89
2017-11-15T00:44:18.384Z,91.61
2017-11-15T00:44:58.963Z,91.61
2017-11-15T00:45:39.551Z,91.42
2017-11-15T00:46:20.130Z,92.18
2017-11-15T00:47:00.708Z,91.8
2017-11-15T00:47:41.329Z,91.99
2017-11-15T00:48:21.909Z,91.99
2017-11-15T00:49:02.503Z,91.61
2017-11-15T00:49:43.095Z,92.66
2017-11-15T00:50:23.686Z,92.37
2017-11-15T00:51:04.283Z,92.27
2017-11-15T00:51:44.903Z,92.18
2017-11-15T00:52:25.569Z,92.08
2017-11-15T00:53:06.141Z,92.27
2017-11-15T00:53:46.737Z,92.18
2017-11-15T00:54:27.348Z,92.18
2017-11-15T00:55:07.924Z,92.56
2017-11-15T00:55:48.523Z,92.18
2017-11-15T00:56:29.137Z,92.37
2017-11-15T00:57:09.736Z,92.18
2017-11-15T00:57:50.312Z,92.18
2017-11-15T00:58:30.902Z,92.27
2017-11-15T00:59:11.503Z,92.18
2017-11-15T00:59:52.073Z,92.46
2017-11-15T01:00:32.657Z,92.46
2017-11-15T01:01:13.249Z,91.99
2017-11-15T01:01:53.863Z,91.52
2017-11-15T01:02:34.469Z,91.99
2017-11-15T01:03:15.065Z,91.89
2017-11-15T01:03:55.643Z,91.89
2017-11-15T01:04:36.259Z,91.89
2017-11-15T01:05:16.900Z,91.89
2017-11-15T01:05:57.455Z,91.61
2017-11-15T01:06:38.040Z,92.46
2017-11-15T01:07:18.617Z,92.18
2017-11-15T01:07:59.208Z,92.37
2017-11-15T01:08:39.811Z,92.27
2017-11-15T01:09:20.375Z,92.56
2017-11-15T01:10:00.961Z,92.37
2017-11-15T01:10:41.539Z,92.56
2017-11-15T01:11:22.142Z,92.66
2017-11-15T01:12:02.710Z,92.85
2017-11-15T01:12:43.272Z,92.37
2017-11-15T01:13:23.866Z,93.23
2017-11-15T01:14:04.429Z,93.04
2017-11-15T01:14:45.014Z,93.04
2017-11-15T01:15:25.593Z,93.23
2017-11-15T01:16:06.176Z,93.23
2017-11-15T01:16:46.743Z,92.94
2017-11-15T01:17:27.425Z,92.94
2017-11-15T01:18:08.038Z,93.04
2017-11-15T01:18:48.690Z,93.23
2017-11-15T01:19:29.246Z,92.94
2017-11-15T01:20:09.824Z,92.94
2017-11-15T01:20:50.387Z,93.13
2017-11-15T01:21:30.962Z,93.7
2017-11-15T01:22:11.518Z,93.41
2017-11-15T01:22:52.073Z,93.32
2017-11-15T01:23:32.640Z,93.04
2017-11-15T01:24:13.226Z,93.41
2017-11-15T01:24:53.794Z,93.32
2017-11-15T01:25:34.381Z,93.41
2017-11-15T01:26:14.957Z,93.51
2017-11-15T01:26:55.582Z,93.41
2017-11-15T01:27:36.162Z,93.51
2017-11-15T01:28:16.739Z,93.23
2017-11-15T01:28:57.353Z,93.7
2017-11-15T01:29:37.966Z,93.6
2017-11-15T01:30:18.544Z,93.51
2017-11-15T01:30:59.148Z,93.32
2017-11-15T01:31:39.748Z,93.13
2017-11-15T01:32:20.348Z,93.23
2017-11-15T01:33:00.925Z,93.41
2017-11-15T01:33:41.488Z,93.23
2017-11-15T01:34:22.056Z,94.08
2017-11-15T01:35:02.623Z,93.79
2017-11-15T01:35:43.201Z,93.79
2017-11-15T01:36:23.777Z,93.89
2017-11-15T01:37:04.355Z,93.7
2017-11-15T01:37:44.953Z,93.7
2017-11-15T01:38:25.541Z,93.89
2017-11-15T01:39:06.121Z,93.79
2017-11-15T01:39:46.689Z,93.89
2017-11-15T01:40:27.282Z,93.89
2017-11-15T01:41:07.873Z,94.18
2017-11-15T01:41:48.452Z,94.37
2017-11-15T01:42:29.047Z,94.65
2017-11-15T01:43:09.658Z,94.18
2017-11-15T01:43:50.245Z,94.46
2017-11-15T01:44:30.827Z,94.08
2017-11-15T01:45:11.397Z,94.08
2017-11-15T01:45:51.985Z,93.89
2017-11-15T01:46:32.552Z,93.79
2017-11-15T01:47:13.132Z,93.89
2017-11-15T01:47:53.743Z,94.08
2017-11-15T01:48:34.334Z,94.27
2017-11-15T01:49:14.922Z,94.46
2017-11-15T01:49:55.578Z,94.08
2017-11-15T01:50:36.153Z,94.27
2017-11-15T01:51:16.735Z,94.08
2017-11-15T01:51:57.311Z,94.08
2017-11-15T01:52:37.904Z,94.18
2017-11-15T01:53:18.506Z,93.99
2017-11-15T01:53:59.118Z,94.18
2017-11-15T01:54:39.723Z,94.08
2017-11-15T01:55:20.344Z,94.18
2017-11-15T01:56:00.952Z,94.37
2017-11-15T01:56:41.529Z,94.27
2017-11-15T01:57:22.112Z,94.08
2017-11-15T01:58:02.706Z,94.08
2017-11-15T01:58:43.288Z,94.37
2017-11-15T01:59:23.894Z,94.18
2017-11-15T02:00:04.491Z,94.18
2017-11-15T02:00:45.109Z,94.08
2017-11-15T02:01:25.678Z,94.27
2017-11-15T02:02:06.267Z,94.08
2017-11-15T02:02:46.850Z,94.08
2017-11-15T02:03:27.438Z,94.46
2017-11-15T02:04:08.003Z,94.46
2017-11-15T02:04:48.572Z,94.84
2017-11-15T02:05:29.170Z,94.65
2017-11-15T02:06:09.746Z,94.65
2017-11-15T02:06:50.337Z,94.93
2017-11-15T02:07:30.941Z,94.65
2017-11-15T02:08:11.484Z,94.74
2017-11-15T02:08:52.049Z,94.56
2017-11-15T02:09:32.629Z,95.12
2017-11-15T02:10:13.217Z,95.22
2017-11-15T02:10:53.827Z,94.84
2017-11-15T02:11:34.412Z,95.03
2017-11-15T02:12:15.031Z,94.65
2017-11-15T02:12:55.592Z,94.93
2017-11-15T02:13:36.176Z,94.93
2017-11-15T02:14:16.756Z,94.93
2017-11-15T02:14:57.322Z,95.03
2017-11-15T02:15:37.903Z,94.93
2017-11-15T02:16:18.484Z,95.12
2017-11-15T02:16:59.107Z,95.12
2017-11-15T02:17:39.701Z,94.93
2017-11-15T02:18:20.269Z,95.12
2017-11-15T02:19:00.856Z,94.93
2017-11-15T02:19:41.437Z,95.6
2017-11-15T02:20:22.026Z,95.7
2017-11-15T02:21:02.607Z,94.84
2017-11-15T02:21:43.190Z,95.03
2017-11-15T02:22:23.763Z,95.22
2017-11-15T02:23:04.353Z,95.03
2017-11-15T02:23:44.970Z,94.93
2017-11-15T02:24:25.535Z,94.93
2017-11-15T02:25:06.125Z,94.93
2017-11-15T02:25:46.697Z,94.93
2017-11-15T02:26:27.254Z,94.74
2017-11-15T02:27:07.807Z,95.03
2017-11-15T02:27:48.387Z,95.12
2017-11-15T02:28:28.968Z,94.93
2017-11-15T02:29:09.553Z,95.6
2017-11-15T02:29:50.134Z,95.6
2017-11-15T02:30:30.792Z,95.6
2017-11-15T02:31:11.374Z,95.7
2017-11-15T02:31:51.958Z,95.32
2017-11-15T02:32:32.568Z,95.89
2017-11-15T02:33:13.155Z,95.6
2017-11-15T02:33:53.744Z,95.12
2017-11-15T02:34:34.312Z,95.6
2017-11-15T02:35:14.922Z,95.98
2017-11-15T02:35:55.526Z,95.7
2017-11-15T02:36:36.103Z,96.08
2017-11-15T02:37:16.701Z,96.08
2017-11-15T02:37:57.278Z,96.26
2017-11-15T02:38:37.842Z,95.84
2017-11-15T02:39:18.404Z,96.65
2017-11-15T02:39:59.024Z,96.17
2017-11-15T02:40:39.588Z,96.65
2017-11-15T02:41:20.286Z,96.74
2017-11-15T02:42:00.850Z,96.74
2017-11-15T02:42:41.445Z,97.31
2017-11-15T02:43:22.027Z,97.41
2017-11-15T02:44:02.591Z,97.31
2017-11-15T02:44:43.187Z,97.5
2017-11-15T02:45:23.800Z,96.98
2017-11-15T02:46:04.375Z,97.69
2017-11-15T02:46:45.059Z,97.5
2017-11-15T02:47:25.634Z,97.5
2017-11-15T02:48:06.210Z,97.22
2017-11-15T02:48:46.767Z,97.6
2017-11-15T02:49:27.354Z,98.07
2017-11-15T02:50:07.950Z,98.07
2017-11-15T02:50:48.513Z,98.26
2017-11-15T02:51:29.090Z,97.88
2017-11-15T02:52:09.666Z,98.07
2017-11-15T02:52:50.261Z,97.41
2017-11-15T02:53:30.840Z,97.31
2017-11-15T02:54:11.411Z,97.5
2017-11-15T02:54:52.007Z,97.22
2017-11-15T02:55:32.589Z,97.6
2017-11-15T02:56:13.165Z,97.69
2017-11-15T02:56:53.747Z,97.69
2017-11-15T02:57:34.314Z,97.88
2017-11-15T02:58:14.913Z,98.36
2017-11-15T02:58:55.476Z,97.97
2017-11-15T02:59:36.040Z,97.69
2017-11-15T03:00:16.607Z,97.69
2017-11-15T03:00:57.171Z,97.12
2017-11-15T03:01:37.757Z,97.22
2017-11-15T03:02:18.338Z,97.5
2017-11-15T03:02:58.926Z,97.03
2017-11-15T03:03:39.504Z,97.22
2017-11-15T03:04:20.093Z,97.31
2017-11-15T03:05:00.687Z,97.31
2017-11-15T03:05:41.257Z,97.69
2017-11-15T03:06:21.874Z,97.69
2017-11-15T03:07:02.434Z,97.69
2017-11-15T03:07:42.997Z,97.31
2017-11-15T03:08:23.575Z,97.31
2017-11-15T03:09:04.166Z,97.97
2017-11-15T03:09:44.738Z,97.97
2017-11-15T03:10:25.339Z,98.07
2017-11-15T03:11:05.924Z,97.22
2017-11-15T03:11:46.491Z,97.22
2017-11-15T03:12:27.075Z,97.31
2017-11-15T03:13:07.656Z,97.31
2017-11-15T03:13:48.212Z,97.5
2017-11-15T03:14:28.770Z,97.22
2017-11-15T03:15:09.419Z,97.5
2017-11-15T03:15:50.035Z,97.5
2017-11-15T03:16:30.623Z,97.22
2017-11-15T03:17:11.203Z,97.31
2017-11-15T03:17:51.771Z,97.12
2017-11-15T03:18:32.358Z,97.22
2017-11-15T03:19:12.918Z,97.88
2017-11-15T03:19:53.512Z,97.97
2017-11-15T03:20:34.109Z,98.07
2017-11-15T03:21:14.704Z,97.41
2017-11-15T03:21:55.297Z,97.22
2017-11-15T03:22:35.888Z,97.69
2017-11-15T03:23:16.459Z,96.93
2017-11-15T03:23:57.019Z,97.03
2017-11-15T03:24:37.590Z,97.5
2017-11-15T03:25:18.165Z,97.22
2017-11-15T03:25:58.727Z,97.6
2017-11-15T03:26:39.284Z,97.5
2017-11-15T03:27:19.880Z,97.12
2017-11-15T03:28:00.470Z,97.22
2017-11-15T03:28:41.027Z,97.5
2017-11-15T03:29:21.593Z,97.31
2017-11-15T03:30:02.206Z,97.5
2017-11-15T03:30:42.784Z,96.84
2017-11-15T03:31:23.349Z,96.84
2017-11-15T03:32:03.986Z,96.84
2017-11-15T03:32:44.581Z,97.5
2017-11-15T03:33:25.147Z,97.5
2017-11-15T03:34:05.755Z,97.31
2017-11-15T03:34:46.347Z,97.41
2017-11-15T03:35:26.952Z,96.84
2017-11-15T03:36:07.527Z,97.5
2017-11-15T03:36:48.119Z,97.41
2017-11-15T03:37:28.711Z,97.03
2017-11-15T03:38:09.293Z,97.12
2017-11-15T03:38:49.898Z,97.31
2017-11-15T03:39:30.501Z,97.22
2017-11-15T03:40:11.105Z,97.22
2017-11-15T03:40:51.701Z,97.31
2017-11-15T03:41:32.280Z,97.27
2017-11-15T03:42:12.866Z,97.12
2017-11-15T03:42:53.445Z,97.22
2017-11-15T03:43:34.036Z,96.93
2017-11-15T03:44:14.618Z,97.07
2017-11-15T03:44:55.198Z,97.17
2017-11-15T03:45:35.804Z,97.17
2017-11-15T03:46:16.382Z,97.36
2017-11-15T03:46:56.959Z,97.27
2017-11-15T03:47:37.542Z,98.12
2017-11-15T03:48:18.167Z,97.74
2017-11-15T03:48:58.746Z,97.74
2017-11-15T03:49:39.318Z,97.64
2017-11-15T03:50:19.930Z,98.12
2017-11-15T03:51:00.579Z,96.88
2017-11-15T03:51:41.170Z,98.02
2017-11-15T03:52:21.784Z,97.74
2017-11-15T03:53:02.357Z,97.74
2017-11-15T03:53:42.943Z,96.88
2017-11-15T03:54:23.531Z,97.36
2017-11-15T03:55:04.102Z,97.27
2017-11-15T03:55:44.684Z,97.22
2017-11-15T03:56:25.247Z,97.17
2017-11-15T03:57:05.842Z,97.22
2017-11-15T03:57:46.442Z,97.27
2017-11-15T03:58:27.004Z,97.31
2017-11-15T03:59:07.587Z,97.45
2017-11-15T03:59:48.164Z,97.31
2017-11-15T04:00:28.741Z,97.41
2017-11-15T04:01:09.317Z,97.41
2017-11-15T04:01:49.954Z,97.36
2017-11-15T04:02:30.542Z,97.22
2017-11-15T04:03:11.155Z,97.17
2017-11-15T04:03:51.744Z,97.5
2017-11-15T04:04:32.325Z,97.12
2017-11-15T04:05:12.892Z,97.07
2017-11-15T04:05:53.494Z,97.5
2017-11-15T04:06:34.079Z,96.84
2017-11-15T04:07:14.676Z,96.65
2017-11-15T04:07:55.282Z,96.55
2017-11-15T04:08:35.885Z,96.55
2017-11-15T04:09:16.484Z,96.55
2017-11-15T04:09:57.068Z,96.74
2017-11-15T04:10:37.637Z,96.65
2017-11-15T04:11:18.209Z,96.65
2017-11-15T04:11:58.778Z,96.55
2017-11-15T04:12:39.377Z,96.55
2017-11-15T04:13:19.988Z,96.65
2017-11-15T04:14:00.598Z,96.45
2017-11-15T04:14:41.203Z,96.84
2017-11-15T04:15:21.820Z,96.74
2017-11-15T04:16:02.427Z,96.93
2017-11-15T04:16:43.012Z,96.74
2017-11-15T04:17:23.605Z,97.03
2017-11-15T04:18:04.236Z,96.84
2017-11-15T04:18:44.863Z,97.17
2017-11-15T04:19:25.448Z,96.84
2017-11-15T04:20:06.048Z,96.74
2017-11-15T04:20:46.637Z,96.65
2017-11-15T04:21:27.224Z,96.84
2017-11-15T04:22:07.799Z,96.74
2017-11-15T04:22:48.353Z,96.65
2017-11-15T04:23:28.925Z,96.84
2017-11-15T04:24:09.497Z,96.65
2017-11-15T04:24:50.082Z,96.74
2017-11-15T04:25:30.677Z,96.65
2017-11-15T04:26:11.311Z,96.74
2017-11-15T04:26:51.941Z,95.89
2017-11-15T04:27:32.488Z,95.89
2017-11-15T04:28:13.054Z,96.65
2017-11-15T04:28:53.626Z,96.45
2017-11-15T04:29:34.221Z,96.45
2017-11-15T04:30:14.814Z,95.89
2017-11-15T04:30:55.411Z,96.45
2017-11-15T04:31:36.014Z,96.65
2017-11-15T04:32:16.586Z,95.98
2017-11-15T04:32:57.171Z,96.08
2017-11-15T04:33:37.762Z,95.98
2017-11-15T04:34:18.352Z,95.89
2017-11-15T04:34:58.928Z,96.26
2017-11-15T04:35:39.519Z,96.26
2017-11-15T04:36:20.153Z,96.17
2017-11-15T04:37:00.752Z,96.08
2017-11-15T04:37:41.398Z,95.98
2017-11-15T04:38:21.986Z,95.98
2017-11-15T04:39:02.572Z,95.89
2017-11-15T04:39:43.188Z,96.17
2017-11-15T04:40:23.880Z,95.98
2017-11-15T04:41:04.400Z,95.89
2017-11-15T04:41:44.982Z,96.17
2017-11-15T04:42:25.574Z,95.7
2017-11-15T04:43:06.176Z,95.79
2017-11-15T04:43:46.766Z,95.98
2017-11-15T04:44:27.337Z,95.98
2017-11-15T04:45:07.903Z,95.89
2017-11-15T04:45:48.486Z,95.89
2017-11-15T04:46:29.076Z,96.17
2017-11-15T04:47:09.654Z,96.17
2017-11-15T04:47:50.228Z,95.79
2017-11-15T04:48:30.808Z,95.7
2017-11-15T04:49:11.391Z,95.79
2017-11-15T04:49:51.975Z,95.7
2017-11-15T04:50:32.552Z,95.7
2017-11-15T04:51:13.136Z,96.26
2017-11-15T04:51:53.712Z,95.79
2017-11-15T04:52:34.284Z,96.17
2017-11-15T04:53:14.883Z,96.17
2017-11-15T04:53:55.466Z,96.45
2017-11-15T04:54:36.028Z,96.36
2017-11-15T04:55:16.630Z,96.08
2017-11-15T04:55:57.196Z,95.79
2017-11-15T04:56:37.777Z,96.08
2017-11-15T04:57:18.349Z,95.7
2017-11-15T04:57:58.935Z,95.98
2017-11-15T04:58:39.506Z,95.98
2017-11-15T04:59:20.092Z,95.89
2017-11-15T05:00:00.667Z,96.08
2017-11-15T05:00:41.231Z,95.89
2017-11-15T05:01:21.830Z,96.74
2017-11-15T05:02:02.424Z,96.65
2017-11-15T05:02:43.005Z,96.65
2017-11-15T05:03:23.636Z,96.65
2017-11-15T05:04:04.217Z,96.65
2017-11-15T05:04:44.783Z,96.55
2017-11-15T05:05:25.358Z,96.45
2017-11-15T05:06:05.918Z,96.55
2017-11-15T05:06:46.510Z,95.89
2017-11-15T05:07:27.090Z,95.89
2017-11-15T05:08:07.638Z,96.17
2017-11-15T05:08:48.210Z,96.17
2017-11-15T05:09:28.792Z,96.08
2017-11-15T05:10:09.354Z,96.17
2017-11-15T05:10:49.911Z,95.89
2017-11-15T05:11:30.487Z,95.89
2017-11-15T05:12:11.051Z,96.74
2017-11-15T05:12:51.619Z,96.65
2017-11-15T05:13:32.176Z,95.89
2017-11-15T05:14:12.765Z,96.17
2017-11-15T05:14:53.321Z,95.98
2017-11-15T05:15:33.885Z,96.45
2017-11-15T05:16:14.470Z,96.08
2017-11-15T05:16:55.033Z,95.98
2017-11-15T05:17:35.622Z,95.98
2017-11-15T05:18:16.202Z,96.17
2017-11-15T05:18:56.767Z,95.98
2017-11-15T05:19:37.334Z,96.17
2017-11-15T05:20:17.918Z,95.89
2017-11-15T05:20:58.512Z,95.98
2017-11-15T05:21:39.057Z,95.98
2017-11-15T05:22:19.634Z,96.26
2017-11-15T05:23:00.241Z,96.26
2017-11-15T05:23:40.823Z,96.36
2017-11-15T05:24:21.385Z,96.45
2017-11-15T05:25:01.949Z,96.55
2017-11-15T05:25:42.519Z,96.65
2017-11-15T05:26:23.091Z,96.74
2017-11-15T05:27:03.665Z,96.45
2017-11-15T05:27:44.399Z,95.98
2017-11-15T05:28:25.273Z,96.84
2017-11-15T05:29:05.877Z,96.17
2017-11-15T05:29:46.458Z,96.26
2017-11-15T05:30:27.025Z,95.89
2017-11-15T05:31:07.607Z,96.08
2017-11-15T05:31:48.180Z,96.08
2017-11-15T05:32:28.756Z,96.17
2017-11-15T05:33:09.321Z,96.17
2017-11-15T05:33:49.892Z,96.26
2017-11-15T05:34:30.469Z,96.08
2017-11-15T05:35:11.036Z,96.65
2017-11-15T05:35:51.624Z,96.55
2017-11-15T05:36:32.215Z,95.98
2017-11-15T05:37:12.819Z,95.89
2017-11-15T05:37:53.370Z,96.08
2017-11-15T05:38:33.928Z,95.79
2017-11-15T05:39:14.489Z,96.26
2017-11-15T05:39:55.091Z,95.89
2017-11-15T05:40:35.666Z,95.98
2017-11-15T05:41:16.259Z,95.79
2017-11-15T05:41:56.837Z,95.79
2017-11-15T05:42:37.454Z,96.45
2017-11-15T05:43:18.030Z,96.55
2017-11-15T05:43:58.650Z,96.65
2017-11-15T05:44:39.216Z,96.65
2017-11-15T05:45:19.808Z,96.55
2017-11-15T05:46:00.354Z,96.74
2017-11-15T05:46:40.971Z,96.36
2017-11-15T05:47:21.540Z,96.55
2017-11-15T05:48:02.104Z,96.65
2017-11-15T05:48:42.701Z,96.65
2017-11-15T05:49:23.271Z,96.45
2017-11-15T05:50:03.856Z,96.45
2017-11-15T05:50:44.426Z,95.79
2017-11-15T05:51:24.986Z,95.98
2017-11-15T05:52:05.563Z,96.17
2017-11-15T05:52:46.129Z,96.17
2017-11-15T05:53:26.737Z,95.79
2017-11-15T05:54:07.315Z,95.98
2017-11-15T05:54:47.884Z,95.89
2017-11-15T05:55:28.472Z,95.89
2017-11-15T05:56:09.018Z,96.45
2017-11-15T05:56:49.606Z,96.74
2017-11-15T05:57:30.221Z,96.65
2017-11-15T05:58:10.807Z,96.55
2017-11-15T05:58:51.372Z,96.65
2017-11-15T05:59:31.941Z,96.65
2017-11-15T06:00:12.530Z,96.55
2017-11-15T06:00:53.090Z,96.45
2017-11-15T06:01:33.658Z,96.45
2017-11-15T06:02:14.281Z,96.65
2017-11-15T06:02:54.847Z,96.45
2017-11-15T06:03:35.430Z,96.45
2017-11-15T06:04:16.002Z,96.65
2017-11-15T06:04:56.581Z,96.45
2017-11-15T06:05:37.187Z,95.98
2017-11-15T06:06:17.788Z,96.08
2017-11-15T06:06:58.369Z,95.98
2017-11-15T06:07:38.924Z,95.98
2017-11-15T06:08:19.507Z,95.98
2017-11-15T06:09:00.708Z,96.45
2017-11-15T06:09:41.354Z,96.65
2017-11-15T06:10:21.996Z,96.45
2017-11-15T06:11:02.638Z,96.45
2017-11-15T06:11:43.093Z,96.65
2017-11-15T06:12:23.654Z,96.65
2017-11-15T06:13:04.173Z,96.84
2017-11-15T06:13:44.850Z,96.65
2017-11-15T06:14:25.436Z,97.03
2017-11-15T06:15:06.007Z,96.93
2017-11-15T06:15:46.547Z,97.31
2017-11-15T06:16:27.126Z,97.31
2017-11-15T06:17:07.679Z,97.12
2017-11-15T06:17:48.297Z,97.22
2017-11-15T06:18:28.816Z,97.31
2017-11-15T06:19:09.469Z,97.31
2017-11-15T06:19:50.023Z,97.22
2017-11-15T06:20:30.607Z,96.84
2017-11-15T06:21:11.115Z,97.22
2017-11-15T06:21:51.736Z,97.22
2017-11-15T06:22:32.381Z,97.5
2017-11-15T06:23:12.887Z,97.03
2017-11-15T06:23:53.490Z,97.6
2017-11-15T06:24:34.044Z,97.41
2017-11-15T06:25:14.675Z,97.31
2017-11-15T06:25:55.172Z,97.31
2017-11-15T06:26:35.791Z,97.31
2017-11-15T06:27:16.445Z,97.6
2017-11-15T06:27:57.012Z,97.88
2017-11-15T06:28:37.572Z,98.93
2017-11-15T06:29:18.305Z,99.97
2017-11-15T06:29:58.825Z,99.99
2017-11-15T06:30:39.395Z,99.99
2017-11-15T06:31:19.918Z,99.99
2017-11-15T06:32:00.604Z,99.99
2017-11-15T06:32:41.115Z,99.99
2017-11-15T06:33:21.849Z,99.88
2017-11-15T06:34:02.434Z,99.12
2017-11-15T06:34:42.910Z,97.88
2017-11-15T06:35:23.506Z,97.98
2017-11-15T06:36:04.094Z,97.98
2017-11-15T06:36:44.781Z,98.22
2017-11-15T06:37:25.313Z,97.36
2017-11-15T06:38:05.823Z,96.89
2017-11-15T06:38:46.374Z,95.65
2017-11-15T06:39:26.939Z,95.17
2017-11-15T06:40:07.512Z,95.08
2017-11-15T06:40:48.085Z,94.27
2017-11-15T06:41:28.888Z,93.51
2017-11-15T06:42:09.451Z,92.55
2017-11-15T06:42:50.022Z,92.36
2017-11-15T06:43:30.591Z,91.51
2017-11-15T06:44:11.763Z,91.6
2017-11-15T06:44:52.327Z,91.22
2017-11-15T06:45:32.924Z,90.27
2017-11-15T06:46:13.496Z,90.36
2017-11-15T06:46:54.055Z,90.41
2017-11-15T06:47:34.614Z,89.84
2017-11-15T06:48:15.175Z,89.55
2017-11-15T06:48:55.722Z,88.79
2017-11-15T06:49:36.301Z,88.31
2017-11-15T06:50:16.860Z,88.7
2017-11-15T06:50:57.452Z,87.65
2017-11-15T06:51:38.030Z,88.22
2017-11-15T06:52:18.819Z,88.22
2017-11-15T06:52:59.418Z,88.22
2017-11-15T06:53:40.017Z,88.03
2017-11-15T06:54:20.635Z,87.93
2017-11-15T06:55:01.244Z,87.65
2017-11-15T06:55:41.858Z,87.46
2017-11-15T06:56:22.440Z,87.17
2017-11-15T06:57:03.023Z,86.51
2017-11-15T06:57:43.588Z,86.41
2017-11-15T06:58:24.160Z,86.69
2017-11-15T06:59:04.741Z,86.93
2017-11-15T06:59:45.303Z,86.74
2017-11-15T07:00:25.878Z,86.55
2017-11-15T07:01:06.438Z,86.36
2017-11-15T07:01:47.026Z,85.88
2017-11-15T07:02:27.748Z,85.41
2017-11-15T07:03:08.342Z,85.02
2017-11-15T07:03:49.588Z,84.74
2017-11-15T07:04:30.167Z,83.88
2017-11-15T07:05:10.746Z,84.26
2017-11-15T07:05:51.331Z,83.59
2017-11-15T07:06:31.923Z,83.21
2017-11-15T07:07:12.514Z,83.69
2017-11-15T07:07:53.110Z,82.73
2017-11-15T07:08:33.699Z,82.64
2017-11-15T07:09:14.323Z,82.35
2017-11-15T07:09:54.913Z,82.5
2017-11-15T07:10:35.910Z,81.93
2017-11-15T07:11:16.732Z,83.26
2017-11-15T07:11:57.338Z,82.69
2017-11-15T07:12:37.910Z,83.7
2017-11-15T07:13:18.500Z,84.27
2017-11-15T07:13:59.073Z,84.65
2017-11-15T07:14:39.676Z,85.03
2017-11-15T07:15:20.263Z,85.75
2017-11-15T07:16:00.827Z,86.61
2017-11-15T07:16:41.399Z,87.18
2017-11-15T07:17:21.988Z,87.27
2017-11-15T07:18:02.602Z,87.75
2017-11-15T07:18:43.173Z,88.32
2017-11-15T07:19:23.749Z,88.66
2017-11-15T07:20:04.332Z,88.66
2017-11-15T07:20:44.908Z,89.51
2017-11-15T07:21:25.512Z,89.61
2017-11-15T07:22:06.077Z,90.08
2017-11-15T07:22:46.651Z,90.37
2017-11-15T07:23:27.247Z,90.28
2017-11-15T07:24:07.899Z,90.66
2017-11-15T07:24:48.464Z,91.03
2017-11-15T07:25:29.030Z,91.03
2017-11-15T07:26:09.612Z,91.51
2017-11-15T07:26:50.218Z,91.32
2017-11-15T07:27:30.779Z,91.8
2017-11-15T07:28:11.353Z,91.61
2017-11-15T07:28:51.929Z,91.94
2017-11-15T07:29:32.503Z,92.08
2017-11-15T07:30:13.719Z,92.56
2017-11-15T07:30:53.692Z,92.22
2017-11-15T07:31:34.308Z,92.51
2017-11-15T07:32:14.900Z,92.51
2017-11-15T07:32:55.464Z,92.7
2017-11-15T07:33:36.057Z,92.89
2017-11-15T07:34:16.629Z,93.18
2017-11-15T07:34:57.188Z,93.27
2017-11-15T07:35:37.773Z,92.8
2017-11-15T07:36:18.382Z,92.99
2017-11-15T07:36:58.961Z,93.75
2017-11-15T07:37:39.551Z,93.75
2017-11-15T07:38:20.143Z,93.46
2017-11-15T07:39:00.746Z,93.46
2017-11-15T07:39:41.347Z,92.99
2017-11-15T07:40:21.923Z,93.08
2017-11-15T07:41:02.519Z,93.46
2017-11-15T07:41:43.104Z,93.46
2017-11-15T07:42:23.693Z,93.46
2017-11-15T07:43:04.276Z,93.46
2017-11-15T07:43:44.840Z,93.08
2017-11-15T07:44:25.418Z,93.46
2017-11-15T07:45:06.002Z,93.08
2017-11-15T07:45:46.572Z,93.65
2017-11-15T07:46:27.260Z,93.27
2017-11-15T07:47:07.842Z,93.94
2017-11-15T07:47:48.430Z,93.75
2017-11-15T07:48:29.020Z,94.42
2017-11-15T07:49:09.589Z,94.13
2017-11-15T07:49:50.166Z,94.13
2017-11-15T07:50:30.762Z,94.98
2017-11-15T07:51:11.326Z,94.42
2017-11-15T07:51:51.917Z,94.51
2017-11-15T07:52:32.525Z,94.98
2017-11-15T07:53:13.115Z,95.17
2017-11-15T07:53:53.683Z,94.7
2017-11-15T07:54:34.264Z,94.79
2017-11-15T07:55:15.625Z,95.17
2017-11-15T07:55:55.586Z,95.08
2017-11-15T07:56:36.181Z,95.17
2017-11-15T07:57:16.742Z,95.08
2017-11-15T07:57:57.346Z,95.94
2017-11-15T07:58:37.929Z,95.94
2017-11-15T07:59:18.502Z,95.75
2017-11-15T07:59:59.076Z,95.65
2017-11-15T08:00:39.750Z,95.46
2017-11-15T08:01:20.479Z,95.46
2017-11-15T08:02:01.085Z,95.46
2017-11-15T08:02:41.811Z,95.46
2017-11-15T08:03:22.409Z,95.56
2017-11-15T08:04:03.097Z,95.36
2017-11-15T08:04:43.710Z,95.46
2017-11-15T08:05:24.285Z,95.17
2017-11-15T08:07:52.340Z,95.75
2017-11-15T08:08:32.923Z,95.65
2017-11-15T08:09:13.527Z,94.89
2017-11-15T08:09:54.083Z,95.08
2017-11-15T08:10:34.650Z,95.17
2017-11-15T08:11:15.230Z,95.17
2017-11-15T08:11:55.795Z,94.98
2017-11-15T08:12:36.368Z,94.98
2017-11-15T08:13:16.941Z,94.98
2017-11-15T08:13:57.514Z,95.08
2017-11-15T08:14:38.087Z,95.08
2017-11-15T08:15:18.679Z,95.17
2017-11-15T08:15:59.263Z,95.17
2017-11-15T08:16:39.844Z,95.17
2017-11-15T08:17:20.392Z,95.08
2017-11-15T08:18:00.981Z,95.27
2017-11-15T08:18:41.551Z,94.98
2017-11-15T08:19:22.126Z,95.46
2017-11-15T08:20:02.696Z,95.65
2017-11-15T08:20:43.260Z,95.36
2017-11-15T08:21:23.909Z,95.46
2017-11-15T08:22:04.702Z,95.46
2017-11-15T08:22:45.461Z,95.46
2017-11-15T08:23:26.032Z,95.75
2017-11-15T08:24:06.618Z,95.56
2017-11-15T08:24:47.199Z,95.51
2017-11-15T08:25:27.789Z,95.32
2017-11-15T08:26:08.358Z,95.27
2017-11-15T08:26:48.942Z,95.36
2017-11-15T08:27:29.534Z,95.46
2017-11-15T08:28:10.115Z,95.56
2017-11-15T08:28:50.694Z,95.46
2017-11-15T08:29:31.270Z,95.27
2017-11-15T08:30:11.857Z,95.36
2017-11-15T08:30:52.419Z,95.36
2017-11-15T08:31:33.035Z,95.17
2017-11-15T08:32:13.623Z,96.12
2017-11-15T08:32:54.207Z,95.6
2017-11-15T08:33:34.790Z,95.84
2017-11-15T08:34:15.366Z,95.94
2017-11-15T08:34:55.942Z,95.94
2017-11-15T08:35:37.214Z,96.03
2017-11-15T08:36:17.789Z,95.89
2017-11-15T08:36:58.376Z,95.56
2017-11-15T08:37:38.948Z,96.22
2017-11-15T08:38:19.554Z,95.84
2017-11-15T08:39:00.133Z,95.89
2017-11-15T08:39:40.722Z,95.65
2017-11-15T08:40:21.355Z,95.84
2017-11-15T08:41:01.924Z,95.84
2017-11-15T08:41:42.512Z,95.94
2017-11-15T08:42:23.112Z,96.03
2017-11-15T08:43:03.765Z,95.17
2017-11-15T08:43:44.361Z,95.46
2017-11-15T08:44:24.942Z,95.51
2017-11-15T08:45:05.541Z,96.03
2017-11-15T08:45:46.119Z,96.12